地図

経路データ

SID SEASON NUMBER BASIN SUBBASIN NAME ISO_TIME NATURE LAT LON WMO_WIND WMO_PRES WMO_AGENCY TRACK_TYPE DIST2LAND LANDFALL IFLAG USA_AGENCY USA_ATCF_ID USA_LAT USA_LON USA_RECORD USA_STATUS USA_WIND USA_PRES USA_SSHS USA_R34_NE USA_R34_SE USA_R34_SW USA_R34_NW USA_R50_NE USA_R50_SE USA_R50_SW USA_R50_NW USA_R64_NE USA_R64_SE USA_R64_SW USA_R64_NW USA_POCI USA_ROCI USA_RMW USA_EYE TOKYO_LAT TOKYO_LON TOKYO_GRADE TOKYO_WIND TOKYO_PRES TOKYO_R50_DIR TOKYO_R50_LONG TOKYO_R50_SHORT TOKYO_R30_DIR TOKYO_R30_LONG TOKYO_R30_SHORT TOKYO_LAND CMA_LAT CMA_LON CMA_CAT CMA_WIND CMA_PRES HKO_LAT HKO_LON HKO_CAT HKO_WIND HKO_PRES NEWDELHI_LAT NEWDELHI_LON NEWDELHI_GRADE NEWDELHI_WIND NEWDELHI_PRES NEWDELHI_CI NEWDELHI_DP NEWDELHI_POCI REUNION_LAT REUNION_LON REUNION_TYPE REUNION_WIND REUNION_PRES REUNION_TNUM REUNION_CI REUNION_RMW REUNION_R34_NE REUNION_R34_SE REUNION_R34_SW REUNION_R34_NW REUNION_R50_NE REUNION_R50_SE REUNION_R50_SW REUNION_R50_NW REUNION_R64_NE REUNION_R64_SE REUNION_R64_SW REUNION_R64_NW BOM_LAT BOM_LON BOM_TYPE BOM_WIND BOM_PRES BOM_TNUM BOM_CI BOM_RMW BOM_R34_NE BOM_R34_SE BOM_R34_SW BOM_R34_NW BOM_R50_NE BOM_R50_SE BOM_R50_SW BOM_R50_NW BOM_R64_NE BOM_R64_SE BOM_R64_SW BOM_R64_NW BOM_ROCI BOM_POCI BOM_EYE BOM_POS_METHOD BOM_PRES_METHOD NADI_LAT NADI_LON NADI_CAT NADI_WIND NADI_PRES WELLINGTON_LAT WELLINGTON_LON WELLINGTON_WIND WELLINGTON_PRES DS824_LAT DS824_LON DS824_STAGE DS824_WIND DS824_PRES TD9636_LAT TD9636_LON TD9636_STAGE TD9636_WIND TD9636_PRES TD9635_LAT TD9635_LON TD9635_WIND TD9635_PRES TD9635_ROCI NEUMANN_LAT NEUMANN_LON NEUMANN_CLASS NEUMANN_WIND NEUMANN_PRES MLC_LAT MLC_LON MLC_CLASS MLC_WIND MLC_PRES USA_GUST BOM_GUST BOM_GUST_PER REUNION_GUST REUNION_GUST_PER USA_SEAHGT USA_SEARAD_NE USA_SEARAD_SE USA_SEARAD_SW USA_SEARAD_NW STORM_SPEED STORM_DIR
1881239N14301 1881 35 NA NA NOT_NAMED 1881-08-27 00:00:00 TS 14.1000 -59.5000 main 414 410 _____________O -1 14.1000 -59.5000 TD 30 7 297
1881239N14301 1881 35 NA CS NOT_NAMED 1881-08-27 03:00:00 TS 14.2526 -59.8074 main 423 417 _____________P -1 14.2526 -59.8074 TD 35 7 297
1881239N14301 1881 35 NA CS NOT_NAMED 1881-08-27 06:00:00 TS 14.4000 -60.1000 main 425 423 _____________O -1 14.4000 -60.1000 TS 40 6 298
1881239N14301 1881 35 NA CS NOT_NAMED 1881-08-27 09:00:00 TS 14.5425 -60.3651 main 430 430 _____________P -1 14.5425 -60.3651 TS 40 6 302
1881239N14301 1881 35 NA CS NOT_NAMED 1881-08-27 12:00:00 TS 14.7000 -60.6000 main 450 450 _____________O -1 14.7000 -60.6000 TS 40 6 309
1881239N14301 1881 35 NA CS NOT_NAMED 1881-08-27 15:00:00 TS 14.8925 -60.8075 main 470 470 _____________P -1 14.8925 -60.8075 TS 45 6 316
1881239N14301 1881 35 NA CS NOT_NAMED 1881-08-27 18:00:00 TS 15.1000 -61.0000 main 492 492 _____________O -1 15.1000 -61.0000 TS 50 6 316
1881239N14301 1881 35 NA CS NOT_NAMED 1881-08-27 21:00:00 TS 15.2925 -61.2075 main 515 515 _____________P -1 15.2925 -61.2075 TS 52 6 316
1881239N14301 1881 35 NA CS NOT_NAMED 1881-08-28 00:00:00 TS 15.5000 -61.4000 main 537 518 _____________O -1 15.5000 -61.4000 TS 55 6 323
1881239N14301 1881 35 NA CS NOT_NAMED 1881-08-28 03:00:00 TS 15.7425 -61.5575 main 509 482 _____________P -1 15.7425 -61.5575 TS 55 6 330
1881239N14301 1881 35 NA CS NOT_NAMED 1881-08-28 06:00:00 TS 16.0000 -61.7000 main 482 461 _____________O -1 16.0000 -61.7000 TS 55 6 330
1881239N14301 1881 35 NA CS NOT_NAMED 1881-08-28 09:00:00 TS 16.2425 -61.8501 main 452 426 _____________P -1 16.2425 -61.8501 TS 52 6 330
1881239N14301 1881 35 NA CS NOT_NAMED 1881-08-28 12:00:00 TS 16.5000 -62.0000 main 426 402 _____________O -1 16.5000 -62.0000 TS 50 6 332
1881239N14301 1881 35 NA CS NOT_NAMED 1881-08-28 15:00:00 TS 16.8000 -62.1575 main 393 370 _____________P -1 16.8000 -62.1575 TS 50 7 334
1881239N14301 1881 35 NA CS NOT_NAMED 1881-08-28 18:00:00 TS 17.1000 -62.3000 main 370 350 _____________O -1 17.1000 -62.3000 TS 50 6 339
1881239N14301 1881 35 NA CS NOT_NAMED 1881-08-28 21:00:00 TS 17.3799 -62.3926 main 350 334 _____________P -1 17.3799 -62.3926 TS 45 5 339
1881239N14301 1881 35 NA CS NOT_NAMED 1881-08-29 00:00:00 TS 17.6000 -62.5000 main 334 311 _____________O -1 17.6000 -62.5000 TS 40 5 321
1881239N14301 1881 35 NA CS NOT_NAMED 1881-08-29 03:00:00 TS 17.7300 -62.6925 main 311 289 _____________P -1 17.7300 -62.6925 TS 40 4 298
1881239N14301 1881 35 NA CS NOT_NAMED 1881-08-29 06:00:00 TS 17.8000 -62.9000 main 289 268 _____________O -1 17.8000 -62.9000 TS 40 4 289
1881239N14301 1881 35 NA CS NOT_NAMED 1881-08-29 09:00:00 TS 17.8525 -63.0650 main 266 255 _____________P -1 17.8525 -63.0650 TS 35 3 289
1881239N14301 1881 35 NA CS NOT_NAMED 1881-08-29 12:00:00 TS 17.9000 -63.2000 main 255 _____________O -1 17.9000 -63.2000 TD 30 3 290

IBTrACS Databaseについて

本データベースは、米国NOAAが公開する1842年以降の世界の熱帯低気圧のベストトラックデータアーカイブInternational Best Track Archive for Climate Stewardship (IBTrACS)を、ウェブで閲覧しやすい形式に変換したものです。

最終更新日:2021-12-06